createdAt,value
2019-04-01T00:00:33.605Z,0.00
2019-04-01T00:01:33.593Z,0.00
2019-04-01T00:02:33.581Z,0.00
2019-04-01T00:03:33.573Z,0.00
2019-04-01T00:04:33.578Z,0.00
2019-04-01T00:05:33.548Z,0.00
2019-04-01T00:06:33.539Z,0.00
2019-04-01T00:07:33.525Z,0.00
2019-04-01T00:08:33.515Z,0.00
2019-04-01T00:09:33.506Z,0.00
2019-04-01T00:10:33.515Z,0.00
2019-04-01T00:11:33.482Z,0.00
2019-04-01T00:12:33.480Z,0.00
2019-04-01T00:13:33.464Z,0.00
2019-04-01T00:14:33.454Z,0.00
2019-04-01T00:15:33.443Z,0.00
2019-04-01T00:16:33.445Z,0.00
2019-04-01T00:17:33.425Z,0.00
2019-04-01T00:18:33.415Z,0.00
2019-04-01T00:19:33.404Z,0.00
2019-04-01T00:20:33.390Z,0.00
2019-04-01T00:21:33.374Z,0.00
2019-04-01T00:22:33.435Z,0.00
2019-04-01T00:23:33.368Z,0.00
2019-04-01T00:24:33.349Z,0.00
2019-04-01T00:25:33.329Z,0.00
2019-04-01T00:26:33.318Z,0.00
2019-04-01T00:27:33.313Z,0.00
2019-04-01T00:28:33.318Z,0.00
2019-04-01T00:29:33.286Z,0.00
2019-04-01T00:30:33.290Z,0.00
2019-04-01T00:31:33.281Z,0.00
2019-04-01T00:32:33.261Z,0.00
2019-04-01T00:33:33.245Z,0.00
2019-04-01T00:34:33.248Z,0.00
2019-04-01T00:35:33.233Z,0.00
2019-04-01T00:36:33.211Z,0.00
2019-04-01T00:37:33.203Z,0.00
2019-04-01T00:38:33.186Z,0.00
2019-04-01T00:39:33.180Z,0.00
2019-04-01T00:40:33.182Z,0.00
2019-04-01T00:41:33.161Z,0.00
2019-04-01T00:42:33.143Z,0.00
2019-04-01T00:43:36.769Z,0.00
2019-04-01T00:44:33.129Z,0.00
2019-04-01T00:45:33.111Z,0.00
2019-04-01T00:46:33.116Z,0.00
2019-04-01T00:47:33.106Z,0.00
2019-04-01T00:48:33.076Z,0.00
2019-04-01T00:49:33.066Z,0.00
2019-04-01T00:50:33.065Z,0.00
2019-04-01T00:51:33.052Z,0.00
2019-04-01T00:52:33.061Z,0.00
2019-04-01T00:53:33.025Z,0.00
2019-04-01T00:54:33.012Z,0.00
2019-04-01T00:55:33.005Z,0.00
2019-04-01T00:56:32.993Z,0.00
2019-04-01T00:57:32.983Z,0.00
2019-04-01T00:58:32.989Z,0.00
2019-04-01T00:59:32.958Z,0.00
2019-04-01T01:00:32.946Z,0.00
2019-04-01T01:01:32.942Z,0.00
2019-04-01T01:02:32.929Z,0.00
2019-04-01T01:03:32.914Z,0.00
2019-04-01T01:04:32.935Z,0.00
2019-04-01T01:05:32.896Z,0.00
2019-04-01T01:06:32.881Z,0.00
2019-04-01T01:07:32.868Z,0.00
2019-04-01T01:08:32.857Z,0.00
2019-04-01T01:09:32.847Z,0.00
2019-04-01T01:10:32.855Z,0.00
2019-04-01T01:11:32.825Z,0.00
2019-04-01T01:12:32.813Z,0.00
2019-04-01T01:13:32.801Z,0.00
2019-04-01T01:14:32.795Z,0.00
2019-04-01T01:15:32.779Z,0.00
2019-04-01T01:16:32.785Z,0.00
2019-04-01T01:17:32.755Z,0.00
2019-04-01T01:18:32.747Z,0.00
2019-04-01T01:19:32.737Z,0.00
2019-04-01T01:20:32.728Z,0.00
2019-04-01T01:21:32.713Z,0.00
2019-04-01T01:22:32.716Z,0.00
2019-04-01T01:23:32.692Z,0.00
2019-04-01T01:24:32.798Z,0.00
2019-04-01T01:25:32.678Z,0.00
2019-04-01T01:26:32.657Z,0.00
2019-04-01T01:27:32.648Z,0.00
2019-04-01T01:28:32.742Z,0.00
2019-04-01T01:29:32.626Z,0.00
2019-04-01T01:30:32.615Z,0.00
2019-04-01T01:31:32.608Z,0.00
2019-04-01T01:32:32.604Z,0.00
2019-04-01T01:33:32.590Z,0.00
2019-04-01T01:34:32.587Z,0.00
2019-04-01T01:35:32.557Z,0.00
2019-04-01T01:36:32.547Z,0.00
2019-04-01T01:37:32.537Z,0.00
2019-04-01T01:38:32.532Z,0.00
2019-04-01T01:39:32.514Z,0.00
2019-04-01T01:40:32.533Z,0.00
2019-04-01T01:41:32.490Z,0.00
2019-04-01T01:42:32.496Z,0.00
2019-04-01T01:43:32.484Z,0.00
2019-04-01T01:44:32.464Z,0.00
2019-04-01T01:45:32.446Z,0.00
2019-04-01T01:46:32.451Z,0.00
2019-04-01T01:47:32.431Z,0.00
2019-04-01T01:48:32.414Z,0.00
2019-04-01T01:49:32.410Z,0.00
2019-04-01T01:50:32.389Z,0.00
2019-04-01T01:51:32.387Z,0.00
2019-04-01T01:52:32.385Z,0.00
2019-04-01T01:53:32.365Z,0.00
2019-04-01T01:54:32.348Z,0.00
2019-04-01T01:55:32.356Z,0.00
2019-04-01T01:56:32.326Z,0.00
2019-04-01T01:57:32.320Z,0.00
2019-04-01T01:58:32.318Z,0.00
2019-04-01T01:59:32.291Z,0.00
2019-04-01T02:00:32.287Z,0.00
2019-04-01T02:01:32.269Z,0.00
2019-04-01T02:02:32.259Z,0.00
2019-04-01T02:03:32.249Z,0.00
2019-04-01T02:04:32.265Z,0.00
2019-04-01T02:05:32.223Z,0.00
2019-04-01T02:06:32.228Z,0.00
2019-04-01T02:07:32.207Z,0.00
2019-04-01T02:08:32.192Z,0.00
2019-04-01T02:09:32.181Z,0.00
2019-04-01T02:10:32.187Z,0.00
2019-04-01T02:11:32.163Z,0.00
2019-04-01T02:12:32.157Z,0.00
2019-04-01T02:13:32.141Z,0.00
2019-04-01T02:14:32.129Z,0.00
2019-04-01T02:15:32.116Z,0.00
2019-04-01T02:16:32.128Z,0.00
2019-04-01T02:17:32.091Z,0.00
2019-04-01T02:18:32.083Z,0.00
2019-04-01T02:19:32.085Z,0.00
2019-04-01T02:20:32.061Z,0.00
2019-04-01T02:21:32.076Z,0.00
2019-04-01T02:22:32.054Z,0.00
2019-04-01T02:23:32.028Z,0.00
2019-04-01T02:24:32.013Z,0.00
2019-04-01T02:25:32.005Z,0.00
2019-04-01T02:26:32.011Z,0.00
2019-04-01T02:27:31.986Z,0.00
2019-04-01T02:28:31.992Z,0.00
2019-04-01T02:29:31.963Z,0.00
2019-04-01T02:30:31.952Z,0.00
2019-04-01T02:31:31.945Z,0.00
2019-04-01T02:32:31.927Z,0.00
2019-04-01T02:33:31.916Z,0.00
2019-04-01T02:34:31.938Z,0.00
2019-04-01T02:35:31.922Z,0.00
2019-04-01T02:36:31.893Z,0.00
2019-04-01T02:37:31.871Z,0.00
2019-04-01T02:38:31.859Z,0.00
2019-04-01T02:39:31.853Z,0.00
2019-04-01T02:40:31.857Z,0.00
2019-04-01T02:41:31.825Z,0.00
2019-04-01T02:42:31.838Z,0.00
2019-04-01T02:43:31.806Z,0.00
2019-04-01T02:44:31.793Z,0.00
2019-04-01T02:45:31.785Z,0.00
2019-04-01T02:46:31.787Z,0.00
2019-04-01T02:47:31.758Z,0.00
2019-04-01T02:48:31.750Z,0.00
2019-04-01T02:49:31.748Z,0.00
2019-04-01T02:50:31.727Z,0.00
2019-04-01T02:51:31.716Z,0.00
2019-04-01T02:52:31.843Z,0.00
2019-04-01T02:53:31.702Z,0.00
2019-04-01T02:54:31.687Z,0.00
2019-04-01T02:55:31.671Z,0.00
2019-04-01T02:56:31.670Z,0.00
2019-04-01T02:57:31.678Z,0.00
2019-04-01T02:58:31.667Z,0.00
2019-04-01T02:59:31.666Z,0.00
2019-04-01T03:00:31.617Z,0.00
2019-04-01T03:01:31.641Z,0.00
2019-04-01T03:02:31.597Z,0.00
2019-04-01T03:03:31.579Z,0.00
2019-04-01T03:04:31.588Z,0.00
2019-04-01T03:05:31.567Z,0.00
2019-04-01T03:06:31.547Z,0.00
2019-04-01T03:07:31.584Z,0.00
2019-04-01T03:08:31.535Z,0.00
2019-04-01T03:09:31.517Z,0.00
2019-04-01T03:10:31.524Z,0.00
2019-04-01T03:11:31.504Z,0.00
2019-04-01T03:12:31.484Z,0.00
2019-04-01T03:13:31.468Z,0.00
2019-04-01T03:14:31.473Z,0.00
2019-04-01T03:15:31.455Z,0.00
2019-04-01T03:16:31.459Z,0.00
2019-04-01T03:17:31.534Z,0.00
2019-04-01T03:18:31.430Z,0.00
2019-04-01T03:19:31.412Z,0.00
2019-04-01T03:20:31.403Z,0.00
2019-04-01T03:21:31.383Z,0.00
2019-04-01T03:22:31.420Z,0.00
2019-04-01T03:23:31.357Z,0.00
2019-04-01T03:24:31.346Z,0.00
2019-04-01T03:25:31.343Z,0.00
2019-04-01T03:26:31.357Z,0.00
2019-04-01T03:27:31.324Z,0.00
2019-04-01T03:28:31.323Z,0.00
2019-04-01T03:29:31.297Z,0.00
2019-04-01T03:30:31.313Z,0.00
2019-04-01T03:31:31.277Z,0.00
2019-04-01T03:32:31.265Z,0.00
2019-04-01T03:33:31.250Z,0.00
2019-04-01T03:34:31.285Z,0.00
2019-04-01T03:35:31.228Z,0.00
2019-04-01T03:36:31.222Z,0.00
2019-04-01T03:37:31.201Z,0.00
2019-04-01T03:38:31.194Z,0.00
2019-04-01T03:39:31.208Z,0.00
2019-04-01T03:40:31.184Z,0.00
2019-04-01T03:41:31.158Z,0.00
2019-04-01T03:42:31.159Z,0.00
2019-04-01T03:43:31.136Z,0.00
2019-04-01T03:44:31.141Z,0.00
2019-04-01T03:45:31.129Z,0.00
2019-04-01T03:46:31.126Z,0.00
2019-04-01T03:47:31.101Z,0.00
2019-04-01T03:48:31.106Z,0.00
2019-04-01T03:49:31.079Z,0.00
2019-04-01T03:50:31.078Z,0.00
2019-04-01T03:51:31.054Z,0.00
2019-04-01T03:52:31.087Z,0.00
2019-04-01T03:53:31.030Z,0.00
2019-04-01T03:54:31.047Z,0.00
2019-04-01T03:55:31.006Z,0.00
2019-04-01T03:56:30.998Z,0.00
2019-04-01T03:57:30.989Z,0.00
2019-04-01T03:58:31.028Z,0.00
2019-04-01T03:59:30.982Z,0.00
2019-04-01T04:00:30.954Z,0.00
2019-04-01T04:01:30.952Z,20.00
2019-04-01T04:02:30.926Z,36.00
2019-04-01T04:03:30.936Z,36.00
2019-04-01T04:04:30.933Z,40.00
2019-04-01T04:05:30.915Z,36.00
2019-04-01T04:06:30.880Z,36.00
2019-04-01T04:07:30.876Z,36.00
2019-04-01T04:08:30.862Z,36.00
2019-04-01T04:09:30.855Z,36.00
2019-04-01T04:10:30.851Z,36.00
2019-04-01T04:11:30.845Z,40.00
2019-04-01T04:12:30.818Z,40.00
2019-04-01T04:13:30.807Z,40.00
2019-04-01T04:14:30.794Z,36.00
2019-04-01T04:15:30.789Z,40.00
2019-04-01T04:16:30.791Z,40.00
2019-04-01T04:17:30.758Z,40.00
2019-04-01T04:18:30.781Z,36.00
2019-04-01T04:19:30.750Z,40.00
2019-04-01T04:20:30.732Z,40.00
2019-04-01T04:21:30.749Z,40.00
2019-04-01T04:22:30.724Z,40.00
2019-04-01T04:23:30.691Z,36.00
2019-04-01T04:24:30.685Z,44.00
2019-04-01T04:25:30.668Z,40.00
2019-04-01T04:26:30.661Z,40.00
2019-04-01T04:27:30.649Z,36.00
2019-04-01T04:28:30.656Z,40.00
2019-04-01T04:29:30.626Z,36.00
2019-04-01T04:30:30.616Z,40.00
2019-04-01T04:31:30.606Z,44.00
2019-04-01T04:32:30.614Z,40.00
2019-04-01T04:33:30.594Z,40.00
2019-04-01T04:34:30.602Z,40.00
2019-04-01T04:35:30.558Z,48.00
2019-04-01T04:36:30.557Z,40.00
2019-04-01T04:37:30.560Z,44.00
2019-04-01T04:38:30.530Z,48.00
2019-04-01T04:39:30.514Z,44.00
2019-04-01T04:40:30.570Z,44.00
2019-04-01T04:41:30.497Z,48.00
2019-04-01T04:42:30.483Z,52.00
2019-04-01T04:43:30.469Z,52.00
2019-04-01T04:44:30.457Z,56.00
2019-04-01T04:45:30.451Z,56.00
2019-04-01T04:46:30.461Z,60.00
2019-04-01T04:47:30.444Z,64.00
2019-04-01T04:48:30.412Z,72.00
2019-04-01T04:49:30.403Z,80.00
2019-04-01T04:50:30.396Z,88.00
2019-04-01T04:51:30.386Z,100.00
2019-04-01T04:52:30.393Z,104.00
2019-04-01T04:53:30.359Z,116.00
2019-04-01T04:54:30.349Z,132.00
2019-04-01T04:55:30.339Z,148.00
2019-04-01T04:56:30.327Z,160.00
2019-04-01T04:57:30.319Z,180.00
2019-04-01T04:58:30.327Z,200.00
2019-04-01T04:59:30.292Z,220.00
2019-04-01T05:00:30.298Z,248.00
2019-04-01T05:01:30.277Z,268.00
2019-04-01T05:02:30.275Z,300.00
2019-04-01T05:03:30.278Z,332.00
2019-04-01T05:04:30.280Z,364.00
2019-04-01T05:05:30.246Z,392.00
2019-04-01T05:06:30.227Z,436.00
2019-04-01T05:07:31.535Z,476.00
2019-04-01T05:08:30.208Z,516.00
2019-04-01T05:09:30.183Z,564.00
2019-04-01T05:10:30.191Z,612.00
2019-04-01T05:11:30.159Z,660.00
2019-04-01T05:12:30.147Z,716.00
2019-04-01T05:13:30.195Z,772.00
2019-04-01T05:14:30.129Z,828.00
2019-04-01T05:15:30.129Z,888.00
2019-04-01T05:16:30.118Z,956.00
2019-04-01T05:17:30.096Z,1020.00
2019-04-01T05:18:30.082Z,1096.00
2019-04-01T05:19:30.085Z,1164.00
2019-04-01T05:20:30.060Z,1240.00
2019-04-01T05:21:30.061Z,1324.00
2019-04-01T05:22:30.053Z,1396.00
2019-04-01T05:23:30.035Z,1488.00
2019-04-01T05:24:30.018Z,1576.00
2019-04-01T05:25:31.934Z,1664.00
2019-04-01T05:26:30.742Z,1764.00
2019-04-01T05:27:29.983Z,1860.00
2019-04-01T05:28:30.004Z,1960.00
2019-04-01T05:29:29.961Z,2084.00
2019-04-01T05:30:29.972Z,2236.00
2019-04-01T05:31:29.944Z,2420.00
2019-04-01T05:32:29.941Z,2636.00
2019-04-01T05:33:29.917Z,2836.00
2019-04-01T05:34:29.923Z,3032.00
2019-04-01T05:35:29.911Z,3236.00
2019-04-01T05:36:29.884Z,3400.00
2019-04-01T05:37:29.872Z,3568.00
2019-04-01T05:38:29.868Z,3700.00
2019-04-01T05:39:29.855Z,3832.00
2019-04-01T05:40:29.856Z,4016.00
2019-04-01T05:41:29.827Z,4216.00
2019-04-01T05:42:29.814Z,4380.00
2019-04-01T05:43:29.812Z,4548.00
2019-04-01T05:44:29.798Z,4708.00
2019-04-01T05:45:29.800Z,4868.00
2019-04-01T05:46:29.787Z,5052.00
2019-04-01T05:47:29.774Z,5236.00
2019-04-01T05:48:29.757Z,5428.00
2019-04-01T05:49:29.739Z,5632.00
2019-04-01T05:50:29.730Z,5796.00
2019-04-01T05:51:29.716Z,5968.00
2019-04-01T05:52:29.786Z,6156.00
2019-04-01T05:53:29.698Z,6372.00
2019-04-01T05:54:29.683Z,6576.00
2019-04-01T05:55:29.687Z,6776.00
2019-04-01T05:56:29.662Z,6928.00
2019-04-01T05:57:29.654Z,7116.00
2019-04-01T05:58:29.661Z,7292.00
2019-04-01T05:59:29.633Z,7464.00
2019-04-01T06:00:29.617Z,7620.00
2019-04-01T06:01:29.608Z,7816.00
2019-04-01T06:02:29.601Z,7996.00
2019-04-01T06:03:29.586Z,8164.00
2019-04-01T06:04:29.597Z,8304.00
2019-04-01T06:05:29.566Z,8428.00
2019-04-01T06:06:29.554Z,8648.00
2019-04-01T06:07:29.545Z,8780.00
2019-04-01T06:08:29.538Z,8956.00
2019-04-01T06:09:29.519Z,9116.00
2019-04-01T06:10:29.533Z,9268.00
2019-04-01T06:11:29.503Z,9396.00
2019-04-01T06:12:29.497Z,9540.00
2019-04-01T06:13:29.507Z,9704.00
2019-04-01T06:14:29.468Z,9852.00
2019-04-01T06:15:29.459Z,9992.00
2019-04-01T06:16:29.463Z,10116.00
2019-04-01T06:17:29.434Z,10252.00
2019-04-01T06:18:29.423Z,10392.00
2019-04-01T06:19:29.426Z,10544.00
2019-04-01T06:20:29.442Z,10672.00
2019-04-01T06:21:29.391Z,10796.00
2019-04-01T06:22:29.440Z,10944.00
2019-04-01T06:23:29.423Z,11292.00
2019-04-01T06:24:29.365Z,11924.00
2019-04-01T06:25:29.358Z,12696.00
2019-04-01T06:26:29.358Z,13412.00
2019-04-01T06:27:29.823Z,13728.00
2019-04-01T06:28:29.333Z,13504.00
2019-04-01T06:29:29.331Z,13904.00
2019-04-01T06:30:29.337Z,14888.00
2019-04-01T06:31:29.326Z,15232.00
2019-04-01T06:32:29.299Z,15392.00
2019-04-01T06:33:29.268Z,15616.00
2019-04-01T06:34:29.269Z,15808.00
2019-04-01T06:35:29.245Z,15968.00
2019-04-01T06:36:29.232Z,16192.00
2019-04-01T06:37:29.220Z,16416.00
2019-04-01T06:38:29.244Z,16576.00
2019-04-01T06:39:29.228Z,16832.00
2019-04-01T06:40:29.203Z,17120.00
2019-04-01T06:41:29.183Z,17536.00
2019-04-01T06:42:29.182Z,17984.00
2019-04-01T06:43:29.151Z,18560.00
2019-04-01T06:44:29.198Z,20256.00
2019-04-01T06:45:29.145Z,24736.00
2019-04-01T06:46:29.139Z,29504.00
2019-04-01T06:47:29.152Z,32256.00
2019-04-01T06:48:29.093Z,33504.00
2019-04-01T06:49:29.100Z,34048.00
2019-04-01T06:50:29.083Z,35648.00
2019-04-01T06:51:29.056Z,36416.00
2019-04-01T06:52:29.069Z,38112.00
2019-04-01T06:53:29.058Z,39520.00
2019-04-01T06:54:29.068Z,39200.00
2019-04-01T06:55:29.013Z,39456.00
2019-04-01T06:56:29.024Z,40256.00
2019-04-01T06:57:29.032Z,41152.00
2019-04-01T06:58:29.014Z,42464.00
2019-04-01T06:59:28.967Z,40896.00
2019-04-01T07:00:29.005Z,39488.00
2019-04-01T07:01:28.946Z,40064.00
2019-04-01T07:02:28.928Z,39968.00
2019-04-01T07:03:28.922Z,39296.00
2019-04-01T07:04:28.936Z,38944.00
2019-04-01T07:05:28.899Z,38688.00
2019-04-01T07:06:28.886Z,41024.00
2019-04-01T07:07:28.890Z,43264.00
2019-04-01T07:08:28.860Z,42560.00
2019-04-01T07:09:28.853Z,44192.00
2019-04-01T07:10:28.866Z,44832.00
2019-04-01T07:11:28.864Z,44032.00
2019-04-01T07:12:28.822Z,45760.00
2019-04-01T07:13:28.804Z,46496.00
2019-04-01T07:14:28.799Z,45984.00
2019-04-01T07:15:28.783Z,44672.00
2019-04-01T07:16:28.792Z,45760.00
2019-04-01T07:17:28.765Z,48192.00
2019-04-01T07:18:28.757Z,49632.00
2019-04-01T07:19:28.735Z,47584.00
2019-04-01T07:20:28.786Z,46560.00
2019-04-01T07:21:28.727Z,47872.00
2019-04-01T07:22:28.726Z,49440.00
2019-04-01T07:23:28.693Z,49536.00
2019-04-01T07:24:28.718Z,48832.00
2019-04-01T07:25:28.668Z,47008.00
2019-04-01T07:26:28.710Z,43808.00
2019-04-01T07:27:28.648Z,43264.00
2019-04-01T07:28:28.654Z,45120.00
2019-04-01T07:29:28.634Z,45216.00
2019-04-01T07:30:28.613Z,45056.00
2019-04-01T07:31:28.604Z,47040.00
2019-04-01T07:32:28.600Z,47520.00
2019-04-01T07:33:28.624Z,47296.00
2019-04-01T07:34:28.631Z,49728.00
2019-04-01T07:35:28.560Z,54688.00
2019-04-01T07:36:28.581Z,55040.00
2019-04-01T07:37:28.556Z,51168.00
2019-04-01T07:38:28.544Z,52928.00
2019-04-01T07:39:28.520Z,55840.00
2019-04-01T07:40:28.531Z,57920.00
2019-04-01T07:41:28.519Z,59456.00
2019-04-01T07:42:28.518Z,61376.00
2019-04-01T07:43:28.511Z,62208.00
2019-04-01T07:44:28.469Z,62880.00
2019-04-01T07:45:28.464Z,64416.00
2019-04-01T07:46:28.482Z,62880.00
2019-04-01T07:47:28.427Z,61024.00
2019-04-01T07:48:28.414Z,61024.00
2019-04-01T07:49:28.406Z,63104.00
2019-04-01T07:50:28.406Z,65440.00
2019-04-01T07:51:28.402Z,67936.00
2019-04-01T07:52:28.391Z,68928.00
2019-04-01T07:53:28.358Z,67648.00
2019-04-01T07:54:28.348Z,65856.00
2019-04-01T07:55:29.253Z,66496.00
2019-04-01T07:56:28.323Z,64448.00
2019-04-01T07:57:28.314Z,61248.00
2019-04-01T07:58:28.356Z,59616.00
2019-04-01T07:59:28.324Z,58432.00
2019-04-01T08:00:28.325Z,60224.00
2019-04-01T08:01:28.299Z,64352.00
2019-04-01T08:02:28.297Z,65056.00
2019-04-01T08:03:28.279Z,64320.00
2019-04-01T08:04:28.311Z,64320.00
2019-04-01T08:05:28.254Z,65056.00
2019-04-01T08:06:28.238Z,64288.00
2019-04-01T08:07:28.202Z,63424.00
2019-04-01T08:08:28.278Z,64320.00
2019-04-01T08:09:28.185Z,66752.00
2019-04-01T08:10:28.199Z,67296.00
2019-04-01T08:11:28.155Z,64896.00
2019-04-01T08:12:28.180Z,63776.00
2019-04-01T08:13:28.129Z,65760.00
2019-04-01T08:14:28.124Z,67328.00
2019-04-01T08:15:28.115Z,66432.00
2019-04-01T08:16:28.118Z,66784.00
2019-04-01T08:17:28.089Z,66368.00
2019-04-01T08:18:28.108Z,65344.00
2019-04-01T08:19:28.093Z,65472.00
2019-04-01T08:20:28.055Z,66144.00
2019-04-01T08:21:28.045Z,65600.00
2019-04-01T08:22:28.053Z,65248.00
2019-04-01T08:23:28.023Z,66016.00
2019-04-01T08:24:28.024Z,66496.00
2019-04-01T08:25:28.035Z,65920.00
2019-04-01T08:26:27.999Z,66272.00
2019-04-01T08:27:27.994Z,65920.00
2019-04-01T08:28:28.007Z,66432.00
2019-04-01T08:29:30.448Z,66368.00
2019-04-01T08:30:27.966Z,66816.00
2019-04-01T08:31:27.972Z,66528.00
2019-04-01T08:32:27.944Z,67072.00
2019-04-01T08:33:27.935Z,68448.00
2019-04-01T08:34:27.961Z,69248.00
2019-04-01T08:35:27.925Z,65824.00
2019-04-01T08:36:27.872Z,62240.00
2019-04-01T08:37:27.899Z,63552.00
2019-04-01T08:38:27.873Z,66656.00
2019-04-01T08:39:27.874Z,68928.00
2019-04-01T08:40:27.906Z,69376.00
2019-04-01T08:41:27.863Z,68960.00
2019-04-01T08:42:27.847Z,67680.00
2019-04-01T08:43:27.823Z,65856.00
2019-04-01T08:44:27.813Z,66752.00
2019-04-01T08:45:27.808Z,68128.00
2019-04-01T08:46:27.839Z,69152.00
2019-04-01T08:47:27.768Z,67840.00
2019-04-01T08:48:27.779Z,64960.00
2019-04-01T08:49:27.769Z,64768.00
2019-04-01T08:50:27.763Z,68224.00
2019-04-01T08:51:27.746Z,69280.00
2019-04-01T08:52:27.774Z,70368.00
2019-04-01T08:53:27.738Z,69248.00
2019-04-01T08:54:27.709Z,68512.00
2019-04-01T08:55:27.671Z,65024.00
2019-04-01T08:56:27.679Z,64480.00
2019-04-01T08:57:27.644Z,65408.00
2019-04-01T08:58:27.709Z,66944.00
2019-04-01T08:59:27.634Z,66848.00
2019-04-01T09:00:27.651Z,67360.00
2019-04-01T09:01:35.013Z,67296.00
2019-04-01T09:02:28.605Z,68576.00
2019-04-01T09:03:27.849Z,69472.00
2019-04-01T09:04:27.780Z,71872.00
2019-04-01T09:05:27.757Z,72704.00
2019-04-01T09:06:31.119Z,71936.00
2019-04-01T09:07:27.569Z,70976.00
2019-04-01T09:08:27.873Z,70336.00
2019-04-01T09:09:27.536Z,70080.00
2019-04-01T09:10:27.604Z,69728.00
2019-04-01T09:11:28.379Z,70880.00
2019-04-01T09:12:27.605Z,72992.00
2019-04-01T09:13:27.512Z,72832.00
2019-04-01T09:14:27.469Z,71456.00
2019-04-01T09:15:27.451Z,71232.00
2019-04-01T09:16:27.448Z,72672.00
2019-04-01T09:17:27.427Z,72352.00
2019-04-01T09:18:27.411Z,72160.00
2019-04-01T09:19:27.399Z,73824.00
2019-04-01T09:20:27.394Z,75328.00
2019-04-01T09:21:27.383Z,73888.00
2019-04-01T09:22:27.385Z,73760.00
2019-04-01T09:23:27.356Z,73280.00
2019-04-01T09:24:27.346Z,73568.00
2019-04-01T09:25:27.369Z,75456.00
2019-04-01T09:26:27.323Z,75808.00
2019-04-01T09:27:27.327Z,76224.00
2019-04-01T09:28:27.335Z,75616.00
2019-04-01T09:29:27.299Z,75840.00
2019-04-01T09:30:27.346Z,77536.00
2019-04-01T09:31:27.303Z,78208.00
2019-04-01T09:32:27.293Z,77568.00
2019-04-01T09:33:27.244Z,78848.00
2019-04-01T09:34:27.359Z,78688.00
2019-04-01T09:35:27.246Z,78784.00
2019-04-01T09:36:27.214Z,78368.00
2019-04-01T09:37:27.234Z,77568.00
2019-04-01T09:38:27.193Z,78176.00
2019-04-01T09:39:27.218Z,77536.00
2019-04-01T09:40:27.221Z,80032.00
2019-04-01T09:41:27.187Z,82080.00
2019-04-01T09:42:27.180Z,81824.00
2019-04-01T09:43:27.137Z,81760.00
2019-04-01T09:44:36.655Z,81408.00
2019-04-01T09:45:28.137Z,79936.00
2019-04-01T09:46:27.104Z,78784.00
2019-04-01T09:47:27.093Z,79040.00
2019-04-01T09:48:27.085Z,80384.00
2019-04-01T09:49:27.072Z,80672.00
2019-04-01T09:50:27.061Z,79648.00
2019-04-01T09:51:27.079Z,80000.00
2019-04-01T09:52:27.037Z,79648.00
2019-04-01T09:53:27.028Z,80128.00
2019-04-01T09:54:27.018Z,78976.00
2019-04-01T09:55:27.007Z,78880.00
2019-04-01T09:56:27.082Z,78976.00
2019-04-01T09:57:27.007Z,79520.00
2019-04-01T09:58:26.990Z,78720.00
2019-04-01T09:59:26.965Z,79584.00
2019-04-01T10:00:26.951Z,77472.00
2019-04-01T10:01:26.944Z,78240.00
2019-04-01T10:02:32.114Z,79712.00
2019-04-01T10:03:27.949Z,80736.00
2019-04-01T10:04:26.911Z,80000.00
2019-04-01T10:05:26.898Z,77888.00
2019-04-01T10:06:26.890Z,79648.00
2019-04-01T10:07:27.000Z,82496.00
2019-04-01T10:08:41.112Z,82016.00
2019-04-01T10:09:27.871Z,80096.00
2019-04-01T10:10:26.845Z,80224.00
2019-04-01T10:11:26.833Z,80736.00
2019-04-01T10:12:26.835Z,78848.00
2019-04-01T10:13:26.814Z,75168.00
2019-04-01T10:14:26.801Z,69184.00
2019-04-01T10:15:26.808Z,66336.00
2019-04-01T10:16:26.783Z,69376.00
2019-04-01T10:17:26.772Z,74080.00
2019-04-01T10:18:26.757Z,75360.00
2019-04-01T10:19:26.747Z,73824.00
2019-04-01T10:20:26.737Z,72448.00
2019-04-01T10:21:26.745Z,74240.00
2019-04-01T10:22:26.714Z,76768.00
2019-04-01T10:23:26.704Z,77760.00
2019-04-01T10:24:26.694Z,77856.00
2019-04-01T10:25:26.703Z,77312.00
2019-04-01T10:26:26.673Z,76224.00
2019-04-01T10:27:26.680Z,75712.00
2019-04-01T10:28:26.773Z,75552.00
2019-04-01T10:29:26.639Z,73696.00
2019-04-01T10:30:26.631Z,73344.00
2019-04-01T10:31:26.622Z,73088.00
2019-04-01T10:32:26.608Z,74624.00
2019-04-01T10:33:26.618Z,75840.00
2019-04-01T10:34:26.590Z,77728.00
2019-04-01T10:35:26.577Z,77568.00
2019-04-01T10:36:26.566Z,78944.00
2019-04-01T10:37:26.558Z,77728.00
2019-04-01T10:38:26.543Z,77344.00
2019-04-01T10:39:26.554Z,77888.00
2019-04-01T10:40:26.525Z,79584.00
2019-04-01T10:41:26.512Z,78688.00
2019-04-01T10:42:26.514Z,76608.00
2019-04-01T10:43:26.494Z,75616.00
2019-04-01T10:44:26.481Z,74912.00
2019-04-01T10:45:26.490Z,76480.00
2019-04-01T10:46:26.459Z,77056.00
2019-04-01T10:47:26.567Z,76640.00
2019-04-01T10:48:26.487Z,77376.00
2019-04-01T10:49:26.440Z,76800.00
2019-04-01T10:50:26.525Z,76608.00
2019-04-01T10:51:26.513Z,76192.00
2019-04-01T10:52:26.426Z,77088.00
2019-04-01T10:53:26.476Z,75936.00
2019-04-01T10:54:26.396Z,67552.00
2019-04-01T10:55:26.413Z,58336.00
2019-04-01T10:56:26.417Z,53792.00
2019-04-01T10:57:26.395Z,59328.00
2019-04-01T10:58:26.377Z,66784.00
2019-04-01T10:59:26.363Z,72768.00
2019-04-01T11:00:26.413Z,73472.00
2019-04-01T11:01:26.302Z,73088.00
2019-04-01T11:02:26.374Z,72512.00
2019-04-01T11:03:26.320Z,72672.00
2019-04-01T11:04:26.310Z,71616.00
2019-04-01T11:05:26.278Z,72672.00
2019-04-01T11:06:26.270Z,74144.00
2019-04-01T11:07:26.277Z,73216.00
2019-04-01T11:08:26.263Z,75200.00
2019-04-01T11:09:37.612Z,75744.00
2019-04-01T11:10:27.201Z,75520.00
2019-04-01T11:11:27.220Z,72832.00
2019-04-01T11:12:26.198Z,70848.00
2019-04-01T11:13:26.171Z,71104.00
2019-04-01T11:14:26.188Z,71168.00
2019-04-01T11:15:26.173Z,70624.00
2019-04-01T11:16:26.153Z,64864.00
2019-04-01T11:17:26.136Z,34080.00
2019-04-01T11:18:26.119Z,10068.00
2019-04-01T11:19:26.122Z,9540.00
2019-04-01T11:20:26.095Z,9480.00
2019-04-01T11:21:26.105Z,9436.00
2019-04-01T11:22:26.074Z,9428.00
2019-04-01T11:23:26.064Z,9412.00
2019-04-01T11:24:26.057Z,9404.00
2019-04-01T11:25:26.041Z,9364.00
2019-04-01T11:26:26.030Z,9308.00
2019-04-01T11:27:26.040Z,9300.00
2019-04-01T11:28:26.007Z,9324.00
2019-04-01T11:29:25.996Z,9336.00
2019-04-01T11:30:25.985Z,9340.00
2019-04-01T11:31:26.049Z,9348.00
2019-04-01T11:32:26.009Z,9340.00
2019-04-01T11:33:25.968Z,9296.00
2019-04-01T11:34:25.965Z,9280.00
2019-04-01T11:35:25.938Z,9268.00
2019-04-01T11:36:25.932Z,9284.00
2019-04-01T11:37:25.940Z,9312.00
2019-04-01T11:38:26.019Z,9324.00
2019-04-01T11:39:25.926Z,9316.00
2019-04-01T11:40:25.904Z,9228.00
2019-04-01T11:41:25.892Z,9124.00
2019-04-01T11:42:25.889Z,9024.00
2019-04-01T11:43:25.931Z,8944.00
2019-04-01T11:44:25.850Z,8908.00
2019-04-01T11:45:25.872Z,8900.00
2019-04-01T11:46:25.835Z,8876.00
2019-04-01T11:47:25.795Z,8860.00
2019-04-01T11:48:25.791Z,8884.00
2019-04-01T11:49:25.861Z,8920.00
2019-04-01T11:50:25.768Z,8952.00
2019-04-01T11:51:32.455Z,8964.00
2019-04-01T11:52:26.757Z,8968.00
2019-04-01T11:53:25.727Z,8916.00
2019-04-01T11:54:25.724Z,8852.00
2019-04-01T11:55:25.708Z,8784.00
2019-04-01T11:56:26.726Z,8732.00
2019-04-01T11:57:25.706Z,8740.00
2019-04-01T11:58:25.713Z,8704.00
2019-04-01T11:59:25.660Z,8696.00
2019-04-01T12:00:26.361Z,8664.00
2019-04-01T12:01:25.636Z,8632.00
2019-04-01T12:02:25.641Z,8612.00
2019-04-01T12:03:25.645Z,8576.00
2019-04-01T12:04:25.603Z,8564.00
2019-04-01T12:05:25.593Z,8536.00
2019-04-01T12:06:25.578Z,8492.00
2019-04-01T12:07:25.568Z,8444.00
2019-04-01T12:08:25.560Z,8392.00
2019-04-01T12:09:25.564Z,8304.00
2019-04-01T12:10:25.538Z,8272.00
2019-04-01T12:11:25.525Z,8212.00
2019-04-01T12:12:25.513Z,8228.00
2019-04-01T12:13:25.517Z,8248.00
2019-04-01T12:14:25.493Z,8288.00
2019-04-01T12:15:25.502Z,8264.00
2019-04-01T12:16:25.477Z,8232.00
2019-04-01T12:17:25.456Z,8168.00
2019-04-01T12:18:25.454Z,8092.00
2019-04-01T12:19:25.452Z,8040.00
2019-04-01T12:20:25.425Z,8032.00
2019-04-01T12:21:25.434Z,8040.00
2019-04-01T12:22:25.400Z,8040.00